Time;durP1;ratioP1;P1;durP2;ratioP2;P2;SDS_P1;SDS_P2;PMS_P1;PMS_P2;Temp;Humidity;BMP_temperature;BMP_pressure;BME280_temperature;BME280_humidity;BME280_pressure;Samples;Min_cycle;Max_cycle;Signal;HPM_P1;HPM_P2
2023/05/30 00:00:28;;;;;;;9.67;3.87;;;16.60;99.90;;;;;;6271047;22;20360;-75
2023/05/30 00:02:54;;;;;;;8.37;3.50;;;16.50;99.90;;;;;;6270586;22;20389;-75
2023/05/30 00:05:20;;;;;;;8.52;3.70;;;16.40;99.90;;;;;;6270869;22;20900;-75
2023/05/30 00:07:46;;;;;;;9.80;3.60;;;16.40;99.90;;;;;;6270875;22;20380;-75
2023/05/30 00:10:12;;;;;;;9.90;4.10;;;16.30;99.90;;;;;;6272733;22;20363;-75
2023/05/30 00:12:40;;;;;;;11.40;3.80;;;16.30;99.90;;;;;;6271496;22;20847;-75
2023/05/30 00:15:06;;;;;;;8.40;3.30;;;16.30;99.90;;;;;;6271409;22;20341;-75
2023/05/30 00:17:32;;;;;;;7.85;3.60;;;16.30;99.90;;;;;;6270781;22;20410;-75
2023/05/30 00:19:59;;;;;;;8.93;3.33;;;16.30;99.90;;;;;;6271647;22;20349;-75
2023/05/30 00:22:25;;;;;;;10.80;3.35;;;16.40;99.90;;;;;;6271134;22;20367;-75
2023/05/30 00:24:51;;;;;;;8.27;3.50;;;16.30;99.90;;;;;;6271112;22;20353;-75
2023/05/30 00:27:17;;;;;;;8.48;3.55;;;16.40;99.90;;;;;;6271437;22;20413;-75
2023/05/30 00:29:45;;;;;;;8.40;3.00;;;16.40;99.90;;;;;;6271565;22;20677;-75
2023/05/30 00:32:12;;;;;;;9.10;3.17;;;16.40;99.90;;;;;;6271480;22;20341;-75
2023/05/30 00:34:37;;;;;;;8.90;3.50;;;16.40;99.90;;;;;;6271306;22;20387;-75
2023/05/30 00:37:05;;;;;;;8.57;3.13;;;16.50;99.90;;;;;;6270856;22;20482;-75
2023/05/30 00:39:32;;;;;;;12.18;3.90;;;16.60;99.90;;;;;;6271069;22;20391;-75
2023/05/30 00:41:57;;;;;;;9.70;3.60;;;16.70;99.90;;;;;;6271309;22;20809;-75
2023/05/30 00:44:23;;;;;;;10.13;3.15;;;16.70;99.90;;;;;;6270546;22;20439;-75
2023/05/30 00:46:50;;;;;;;10.48;3.58;;;16.70;99.90;;;;;;6270415;22;20754;-75
2023/05/30 00:49:16;;;;;;;10.18;3.88;;;16.80;99.90;;;;;;6271067;22;20370;-75
2023/05/30 00:51:42;;;;;;;10.45;4.50;;;16.80;99.90;;;;;;6271603;22;20364;-74
2023/05/30 00:54:07;;;;;;;8.32;3.35;;;16.90;99.90;;;;;;6270786;22;20813;-75
2023/05/30 00:56:34;;;;;;;12.57;3.50;;;16.90;99.90;;;;;;6271200;22;20376;-75
2023/05/30 00:59:01;;;;;;;9.25;3.60;;;16.90;99.90;;;;;;6270594;22;20689;-75
2023/05/30 01:01:27;;;;;;;10.88;3.92;;;16.90;99.90;;;;;;6270619;22;20730;-75
2023/05/30 01:03:54;;;;;;;9.00;3.40;;;16.80;99.90;;;;;;6270851;22;20395;-75
2023/05/30 01:06:20;;;;;;;9.60;3.33;;;16.60;99.90;;;;;;6270620;22;20371;-75
2023/05/30 01:08:47;;;;;;;8.52;2.97;;;16.60;99.90;;;;;;6271410;22;20844;-75
2023/05/30 01:11:37;;;;;;;8.02;3.50;;;16.50;99.90;;;;;;6271501;22;20364;-75
2023/05/30 01:14:16;;;;;;;10.40;3.33;;;16.30;99.90;;;;;;6270385;22;20364;-75
2023/05/30 01:16:51;;;;;;;10.52;3.00;;;16.10;99.90;;;;;;6271733;22;20384;-75
2023/05/30 01:19:46;;;;;;;9.77;3.30;;;16.00;99.90;;;;;;6270941;22;20352;-75
2023/05/30 01:22:38;;;;;;;9.30;3.33;;;15.70;99.90;;;;;;6244833;22;20455;-75
2023/05/30 01:25:27;;;;;;;8.40;3.80;;;15.50;99.90;;;;;;6270478;22;20367;-75
2023/05/30 01:28:13;;;;;;;14.57;3.95;;;15.40;99.90;;;;;;6270249;22;20344;-74
2023/05/30 01:30:44;;;;;;;8.40;3.70;;;15.40;99.90;;;;;;6270984;22;20359;-74
2023/05/30 01:33:12;;;;;;;10.35;3.58;;;15.30;99.90;;;;;;6270728;22;20806;-74
2023/05/30 01:35:37;;;;;;;7.60;3.50;;;15.20;99.90;;;;;;6269813;22;20367;-75
2023/05/30 01:38:03;;;;;;;11.07;4.18;;;15.20;99.90;;;;;;6242327;22;20384;-75
2023/05/30 01:40:29;;;;;;;7.93;3.40;;;15.30;99.90;;;;;;6270379;22;20472;-74
2023/05/30 01:43:13;;;;;;;10.50;3.30;;;15.40;99.90;;;;;;6270180;22;20537;-74
2023/05/30 01:46:10;;;;;;;12.13;3.65;;;15.30;99.90;;;;;;6270127;22;21077;-74
2023/05/30 01:49:03;;;;;;;8.30;3.40;;;15.30;99.90;;;;;;6263245;22;20387;-75
2023/05/30 01:51:38;;;;;;;9.05;3.20;;;15.20;99.90;;;;;;6270407;22;20356;-75
2023/05/30 01:54:06;;;;;;;8.82;4.00;;;15.10;99.90;;;;;;6270651;22;20518;-74
2023/05/30 01:56:33;;;;;;;10.07;3.50;;;15.20;99.90;;;;;;6270568;22;20376;-75
2023/05/30 01:58:59;;;;;;;9.75;3.70;;;15.10;99.90;;;;;;6270156;22;20451;-75
2023/05/30 02:01:27;;;;;;;8.98;3.88;;;15.00;99.90;;;;;;6270477;22;20364;-74
2023/05/30 02:03:54;;;;;;;10.80;4.23;;;14.90;99.90;;;;;;6270217;22;20839;-74
2023/05/30 02:06:19;;;;;;;7.70;3.73;;;14.80;1.00;;;;;;6270411;22;20356;-75
2023/05/30 02:08:45;;;;;;;8.32;3.22;;;14.80;1.00;;;;;;6270799;22;20391;-75
2023/05/30 02:11:11;;;;;;;10.33;3.80;;;14.80;1.00;;;;;;6271446;22;20398;-75
2023/05/30 02:13:36;;;;;;;8.23;3.83;;;14.70;1.00;;;;;;6270716;22;20398;-75
2023/05/30 02:16:02;;;;;;;9.10;3.95;;;14.50;1.00;;;;;;6270344;22;20808;-75
2023/05/30 02:18:27;;;;;;;10.27;4.50;;;14.50;1.00;;;;;;6270419;22;20352;-75
2023/05/30 02:20:54;;;;;;;9.00;3.63;;;14.40;1.00;;;;;;6270210;22;20362;-75
2023/05/30 02:23:20;;;;;;;9.13;3.80;;;14.50;1.00;;;;;;6270517;22;20345;-75
2023/05/30 02:25:46;;;;;;;7.55;3.33;;;14.50;1.00;;;;;;6270209;22;20386;-75
2023/05/30 02:28:11;;;;;;;9.10;4.20;;;14.60;1.00;;;;;;6270884;22;20344;-75
2023/05/30 02:30:38;;;;;;;12.43;3.85;;;14.60;1.00;;;;;;6269902;22;20375;-75
2023/05/30 02:33:04;;;;;;;9.13;4.05;;;14.70;1.00;;;;;;6269972;22;20359;-75
2023/05/30 02:35:30;;;;;;;8.23;3.20;;;14.70;1.00;;;;;;6270185;22;20356;-75
2023/05/30 02:37:55;;;;;;;10.70;3.80;;;14.80;1.00;;;;;;6270422;22;20416;-75
2023/05/30 02:40:21;;;;;;;7.80;3.50;;;14.80;1.00;;;;;;6270140;22;21092;-75
2023/05/30 02:42:46;;;;;;;9.93;3.10;;;14.90;1.00;;;;;;6270372;22;20681;-75
2023/05/30 02:45:12;;;;;;;12.60;3.60;;;14.90;1.00;;;;;;6270525;22;20358;-75
2023/05/30 02:47:38;;;;;;;8.40;3.60;;;14.90;1.00;;;;;;6269670;22;20360;-75
2023/05/30 02:50:04;;;;;;;10.35;3.85;;;14.90;1.00;;;;;;6270733;22;20356;-75
2023/05/30 02:52:30;;;;;;;9.93;3.80;;;15.00;1.00;;;;;;6269912;22;20447;-75
2023/05/30 02:54:55;;;;;;;9.17;3.87;;;15.00;1.00;;;;;;6270293;22;20392;-75
2023/05/30 02:57:21;;;;;;;10.57;3.53;;;15.00;1.00;;;;;;6270224;22;20380;-75
2023/05/30 02:59:47;;;;;;;9.30;3.95;;;14.90;1.00;;;;;;6269693;22;20408;-75
2023/05/30 03:02:13;;;;;;;9.23;3.50;;;14.90;1.00;;;;;;6270797;22;20352;-74
2023/05/30 03:04:38;;;;;;;10.93;3.78;;;14.80;1.00;;;;;;6269876;22;20398;-74
2023/05/30 03:07:08;;;;;;;8.20;3.80;;;14.70;1.00;;;;;;6270269;22;20363;-74
2023/05/30 03:09:34;;;;;;;9.27;3.80;;;14.70;1.00;;;;;;6270430;22;20435;-75
2023/05/30 03:12:00;;;;;;;9.40;3.70;;;14.70;1.00;;;;;;6272228;22;20360;-75
2023/05/30 03:14:26;;;;;;;9.10;3.70;;;14.60;1.00;;;;;;6271818;22;20364;-75
2023/05/30 03:16:52;;;;;;;7.72;3.50;;;14.60;1.00;;;;;;6271897;22;20687;-75
2023/05/30 03:19:18;;;;;;;14.27;3.97;;;14.50;1.00;;;;;;6272718;22;20356;-74
2023/05/30 03:21:43;;;;;;;9.27;3.38;;;14.50;1.00;;;;;;6272998;22;20763;-74
2023/05/30 03:24:11;;;;;;;9.13;3.97;;;14.50;1.00;;;;;;6272546;22;20407;-74
2023/05/30 03:26:37;;;;;;;10.75;3.85;;;14.40;1.00;;;;;;6272687;22;20363;-75
2023/05/30 03:29:02;;;;;;;8.17;3.50;;;14.40;1.00;;;;;;6272317;22;20375;-75
2023/05/30 03:31:29;;;;;;;7.80;3.77;;;14.40;1.00;;;;;;6272458;22;20419;-75
2023/05/30 03:33:54;;;;;;;11.63;4.15;;;14.40;1.00;;;;;;6272450;22;20364;-75
2023/05/30 03:36:20;;;;;;;9.25;4.00;;;14.30;1.00;;;;;;6272570;22;20380;-75
2023/05/30 03:38:47;;;;;;;8.23;3.58;;;14.30;1.00;;;;;;6272635;22;20380;-75
2023/05/30 03:41:12;;;;;;;9.27;3.90;;;14.30;1.00;;;;;;6272750;22;20356;-75
2023/05/30 03:43:38;;;;;;;9.82;3.75;;;14.30;1.00;;;;;;6271378;22;20371;-75
2023/05/30 03:46:04;;;;;;;13.52;3.95;;;14.40;1.00;;;;;;6272504;22;20836;-75
2023/05/30 03:48:29;;;;;;;8.70;3.60;;;14.40;1.00;;;;;;6272238;22;20344;-75
2023/05/30 03:50:55;;;;;;;9.60;3.55;;;14.40;1.00;;;;;;6272298;22;20368;-75
2023/05/30 03:53:20;;;;;;;9.05;3.70;;;14.30;50.50;;;;;;6272145;22;20348;-75
2023/05/30 03:55:47;;;;;;;10.20;4.00;;;14.30;99.90;;;;;;6271725;22;20440;-75
2023/05/30 03:58:13;;;;;;;10.15;4.28;;;14.30;99.90;;;;;;6272420;22;20772;-75
2023/05/30 04:00:38;;;;;;;10.68;3.50;;;14.30;99.90;;;;;;6272335;22;20444;-75
2023/05/30 04:03:04;;;;;;;9.90;3.90;;;14.30;99.90;;;;;;6271715;22;20364;-75
2023/05/30 04:05:29;;;;;;;8.83;3.60;;;14.30;99.90;;;;;;6271953;22;20402;-75
2023/05/30 04:07:56;;;;;;;10.63;3.80;;;14.30;99.90;;;;;;6271445;22;20811;-75
2023/05/30 04:10:22;;;;;;;7.65;3.45;;;14.40;99.90;;;;;;6273303;22;20669;-75
2023/05/30 04:12:48;;;;;;;10.33;4.13;;;14.50;99.90;;;;;;6271199;22;20352;-75
2023/05/30 04:15:13;;;;;;;14.02;3.25;;;14.60;45.60;;;;;;6272970;22;20350;-75
2023/05/30 04:17:40;;;;;;;10.10;4.17;;;14.70;1.00;;;;;;6272524;22;20386;-75
2023/05/30 04:20:08;;;;;;;7.35;3.20;;;14.90;1.00;;;;;;6271677;22;20627;-75
2023/05/30 04:22:34;;;;;;;10.38;3.45;;;15.00;1.00;;;;;;6272896;22;20353;-75
2023/05/30 04:25:00;;;;;;;8.20;3.43;;;15.20;1.00;;;;;;6273801;22;20471;-75
2023/05/30 04:27:26;;;;;;;12.15;4.10;;;15.30;1.00;;;;;;6274398;22;20387;-75
2023/05/30 04:29:53;;;;;;;11.80;3.70;;;15.60;1.00;;;;;;6297222;22;20428;-75
2023/05/30 04:32:19;;;;;;;10.25;3.60;;;15.70;1.00;;;;;;6275468;22;20401;-75
2023/05/30 04:34:45;;;;;;;11.15;3.50;;;15.80;1.00;;;;;;6285841;22;20369;-75
2023/05/30 04:37:11;;;;;;;9.05;3.70;;;15.90;99.90;;;;;;6288623;22;20467;-75
2023/05/30 04:39:37;;;;;;;13.00;3.50;;;15.80;99.90;;;;;;6273849;22;20356;-75
2023/05/30 04:42:04;;;;;;;9.40;3.70;;;16.00;99.90;;;;;;6272236;22;20383;-75
2023/05/30 04:44:32;;;;;;;9.00;3.20;;;16.10;99.90;;;;;;6272542;22;20356;-75
2023/05/30 04:46:58;;;;;;;8.25;3.42;;;16.10;99.90;;;;;;6272263;22;20357;-75
2023/05/30 04:49:23;;;;;;;12.50;3.77;;;16.10;99.90;;;;;;6272237;22;20886;-75
2023/05/30 04:51:50;;;;;;;9.50;3.22;;;16.20;99.90;;;;;;6272023;22;20360;-75
2023/05/30 04:54:16;;;;;;;8.13;3.35;;;16.30;99.90;;;;;;6271410;22;20352;-75
2023/05/30 04:56:41;;;;;;;10.40;3.55;;;16.50;99.90;;;;;;6272339;22;20970;-75
2023/05/30 04:59:07;;;;;;;9.10;3.40;;;16.70;99.90;;;;;;6270960;22;20798;-76
2023/05/30 05:01:35;;;;;;;9.97;3.27;;;16.70;99.90;;;;;;6271267;22;20405;-76
2023/05/30 05:04:04;;;;;;;10.85;3.20;;;17.00;99.90;;;;;;6272190;22;20356;-76
2023/05/30 05:06:30;;;;;;;8.35;3.08;;;17.20;99.90;;;;;;6271586;22;20356;-75
2023/05/30 05:08:55;;;;;;;9.13;3.40;;;17.40;99.90;;;;;;6271567;22;20881;-76
2023/05/30 05:11:21;;;;;;;11.13;3.60;;;17.70;99.90;;;;;;6271935;22;20732;-76
2023/05/30 05:13:47;;;;;;;12.18;3.90;;;18.00;99.90;;;;;;6271576;22;20360;-76
2023/05/30 05:16:12;;;;;;;9.60;3.30;;;18.30;99.90;;;;;;6271328;22;20390;-76
2023/05/30 05:18:38;;;;;;;8.77;2.93;;;18.60;99.90;;;;;;6271318;22;20384;-75
2023/05/30 05:21:05;;;;;;;8.73;3.53;;;18.80;99.90;;;;;;6271763;22;20463;-76
2023/05/30 05:23:30;;;;;;;8.98;3.53;;;19.00;99.90;;;;;;6271539;22;20423;-76
2023/05/30 05:26:00;;;;;;;9.65;3.50;;;19.00;99.90;;;;;;6271194;22;20391;-76
2023/05/30 05:28:25;;;;;;;8.10;3.30;;;19.00;99.90;;;;;;6271489;22;20357;-75
2023/05/30 05:30:51;;;;;;;12.30;3.50;;;18.90;99.90;;;;;;6271049;22;20352;-76
2023/05/30 05:33:16;;;;;;;8.27;3.00;;;19.10;99.90;;;;;;6270566;22;20435;-76
2023/05/30 05:35:45;;;;;;;9.77;3.80;;;19.30;99.90;;;;;;6271565;22;20805;-75
2023/05/30 05:38:11;;;;;;;10.73;3.80;;;19.10;99.90;;;;;;6271162;22;20372;-75
2023/05/30 05:40:36;;;;;;;9.23;3.28;;;18.90;99.90;;;;;;6270958;22;20419;-75
2023/05/30 05:43:02;;;;;;;11.73;3.35;;;18.70;99.90;;;;;;6271129;22;20500;-75
2023/05/30 05:45:28;;;;;;;10.60;3.97;;;18.40;99.90;;;;;;6270626;22;20430;-75
2023/05/30 05:47:53;;;;;;;8.47;2.63;;;18.30;99.90;;;;;;6270539;22;20701;-75
2023/05/30 05:50:19;;;;;;;10.00;3.10;;;18.40;99.90;;;;;;6270857;22;20359;-75
2023/05/30 05:52:44;;;;;;;8.98;3.10;;;18.50;99.90;;;;;;6270656;22;20364;-75
2023/05/30 05:55:10;;;;;;;11.95;3.65;;;18.70;99.90;;;;;;6270873;22;20383;-75
2023/05/30 05:57:35;;;;;;;8.70;3.45;;;18.80;99.90;;;;;;6269697;22;20380;-75
2023/05/30 06:00:01;;;;;;;8.07;2.90;;;18.90;99.90;;;;;;6269441;22;20804;-75
2023/05/30 06:02:27;;;;;;;9.30;3.73;;;18.90;99.90;;;;;;6269255;22;20360;-75
2023/05/30 06:04:52;;;;;;;11.00;3.67;;;19.00;99.90;;;;;;6266941;22;20371;-75
2023/05/30 06:07:18;;;;;;;11.40;3.00;;;18.90;99.90;;;;;;6269216;22;20405;-75
2023/05/30 06:09:43;;;;;;;9.13;3.20;;;18.80;99.90;;;;;;6270765;22;20367;-75
2023/05/30 06:12:09;;;;;;;9.38;3.10;;;19.00;99.90;;;;;;6270582;22;20359;-75
2023/05/30 06:14:35;;;;;;;7.88;2.70;;;19.30;99.90;;;;;;6270350;22;20367;-74
2023/05/30 06:17:01;;;;;;;7.70;3.00;;;19.80;99.90;;;;;;6272096;22;20787;-75
2023/05/30 06:19:26;;;;;;;6.85;2.70;;;20.10;99.90;;;;;;6270782;22;20367;-75
2023/05/30 06:21:52;;;;;;;11.82;3.13;;;19.90;99.90;;;;;;6269744;22;20896;-75
2023/05/30 06:24:17;;;;;;;10.15;3.08;;;20.30;99.90;;;;;;6270362;22;20388;-75
2023/05/30 06:26:43;;;;;;;9.45;3.20;;;20.30;99.90;;;;;;6271298;22;20492;-75
2023/05/30 06:29:08;;;;;;;9.65;3.40;;;19.80;99.90;;;;;;6271418;22;20881;-75
2023/05/30 06:31:34;;;;;;;8.33;3.00;;;19.50;99.90;;;;;;6269579;22;20434;-74
2023/05/30 06:33:59;;;;;;;9.90;2.90;;;19.10;99.90;;;;;;6269840;22;20435;-75
2023/05/30 06:36:25;;;;;;;8.90;3.20;;;19.20;99.90;;;;;;6269625;22;20372;-74
2023/05/30 06:38:51;;;;;;;7.60;2.73;;;19.00;99.90;;;;;;6268785;22;20722;-74
2023/05/30 06:41:16;;;;;;;9.23;2.80;;;18.80;99.90;;;;;;6269723;22;20423;-74
2023/05/30 06:43:42;;;;;;;10.05;3.20;;;19.30;99.90;;;;;;6269585;22;20466;-75
2023/05/30 06:46:07;;;;;;;14.40;3.90;;;19.40;99.90;;;;;;6270465;22;20408;-75
2023/05/30 06:48:33;;;;;;;11.17;2.90;;;19.50;99.90;;;;;;6244336;22;20348;-75
2023/05/30 06:50:58;;;;;;;7.70;2.83;;;19.60;99.90;;;;;;6271543;22;20348;-75
2023/05/30 06:53:24;;;;;;;6.83;2.57;;;19.70;99.90;;;;;;6271380;22;20364;-75
2023/05/30 06:55:50;;;;;;;7.53;3.33;;;20.00;99.90;;;;;;6271751;22;20355;-75
2023/05/30 06:58:18;;;;;;;7.70;2.70;;;20.30;99.90;;;;;;6271881;22;20352;-74
2023/05/30 07:00:44;;;;;;;7.35;2.60;;;20.30;99.90;;;;;;6271989;22;20348;-74
2023/05/30 07:03:09;;;;;;;9.52;2.78;;;20.70;99.90;;;;;;6272460;22;20716;-75
2023/05/30 07:05:35;;;;;;;9.30;2.83;;;20.60;99.90;;;;;;6271620;22;20345;-75
2023/05/30 07:08:00;;;;;;;8.67;2.90;;;20.30;99.90;;;;;;6271566;22;20360;-75
2023/05/30 07:10:26;;;;;;;7.60;2.50;;;20.60;99.90;;;;;;6271869;22;20375;-75
2023/05/30 07:12:52;;;;;;;10.23;3.20;;;21.00;99.90;;;;;;6271914;22;20355;-75
2023/05/30 07:15:18;;;;;;;8.50;2.90;;;21.50;99.90;;;;;;6271013;22;20353;-75
2023/05/30 07:17:43;;;;;;;7.70;2.90;;;21.40;99.90;;;;;;6272531;22;20655;-75
2023/05/30 07:20:09;;;;;;;8.27;3.00;;;21.20;99.90;;;;;;6271235;22;20356;-75
2023/05/30 07:22:34;;;;;;;9.70;3.90;;;21.20;99.90;;;;;;6271753;22;20400;-75
2023/05/30 07:25:00;;;;;;;11.80;3.87;;;21.10;99.90;;;;;;6271707;22;20372;-76
2023/05/30 07:27:25;;;;;;;7.90;3.40;;;21.70;99.90;;;;;;6271386;22;20398;-76
2023/05/30 07:29:51;;;;;;;11.13;3.70;;;22.10;99.90;;;;;;6271496;22;20679;-76
2023/05/30 07:32:17;;;;;;;7.22;3.13;;;23.00;99.90;;;;;;6270964;22;20351;-76
2023/05/30 07:34:43;;;;;;;9.25;3.20;;;23.60;99.90;;;;;;6271236;22;20685;-75
2023/05/30 07:37:08;;;;;;;8.93;3.72;;;23.20;99.90;;;;;;6271252;22;20376;-75
2023/05/30 07:39:35;;;;;;;9.10;3.33;;;22.90;99.90;;;;;;6271395;22;20663;-76
2023/05/30 07:42:01;;;;;;;8.75;3.80;;;23.10;99.90;;;;;;6271585;22;20352;-75
2023/05/30 07:44:27;;;;;;;7.82;4.00;;;23.50;99.90;;;;;;6270861;22;20431;-75
2023/05/30 07:46:52;;;;;;;10.07;3.90;;;24.60;99.90;;;;;;6270788;22;20395;-76
2023/05/30 07:49:19;;;;;;;9.20;4.53;;;24.90;99.90;;;;;;6271123;22;20803;-76
2023/05/30 07:51:45;;;;;;;8.50;4.03;;;24.90;99.90;;;;;;6270469;22;20852;-76
2023/05/30 07:54:10;;;;;;;9.73;4.67;;;25.30;99.90;;;;;;6271883;22;20370;-76
2023/05/30 07:56:36;;;;;;;10.63;4.90;;;25.90;99.90;;;;;;6270720;22;20400;-76
2023/05/30 07:59:01;;;;;;;10.82;5.35;;;26.00;99.90;;;;;;6271542;22;20752;-76
2023/05/30 08:01:27;;;;;;;9.63;5.40;;;26.40;99.90;;;;;;6270833;22;20359;-76
2023/05/30 08:03:53;;;;;;;10.10;5.53;;;27.20;99.90;;;;;;6270532;22;20826;-74
2023/05/30 08:06:19;;;;;;;9.02;4.90;;;27.70;99.90;;;;;;6270977;22;20497;-74
2023/05/30 08:08:45;;;;;;;9.88;3.85;;;28.00;99.90;;;;;;6271221;22;20853;-74
2023/05/30 08:11:11;;;;;;;8.68;5.38;;;28.80;99.90;;;;;;6271666;22;20349;-74
2023/05/30 08:13:37;;;;;;;9.75;5.60;;;29.40;99.90;;;;;;6271421;22;20370;-74
2023/05/30 08:16:02;;;;;;;9.77;3.23;;;29.70;99.90;;;;;;6270780;22;20369;-76
2023/05/30 08:18:30;;;;;;;7.95;2.58;;;29.30;99.90;;;;;;6270461;22;20349;-76
2023/05/30 08:20:56;;;;;;;10.65;2.70;;;28.70;99.90;;;;;;6243767;22;20394;-76
2023/05/30 08:23:21;;;;;;;11.05;3.15;;;29.70;99.90;;;;;;6270678;22;20356;-76
2023/05/30 08:25:47;;;;;;;8.77;4.55;;;30.20;99.90;;;;;;6271178;22;20364;-76
2023/05/30 08:28:13;;;;;;;8.47;6.60;;;30.10;99.90;;;;;;6271676;22;20364;-76
2023/05/30 08:30:40;;;;;;;10.90;6.80;;;30.20;99.90;;;;;;6271023;22;20344;-76
2023/05/30 08:33:07;;;;;;;9.30;5.05;;;30.10;99.90;;;;;;6270296;22;20352;-76
2023/05/30 08:35:33;;;;;;;10.57;6.68;;;29.80;99.90;;;;;;6271048;22;20356;-76
2023/05/30 08:37:59;;;;;;;8.60;5.40;;;30.20;99.90;;;;;;6270316;22;20399;-76
2023/05/30 08:40:25;;;;;;;9.67;4.57;;;30.70;99.90;;;;;;6270832;22;20850;-76
2023/05/30 08:42:51;;;;;;;8.93;2.70;;;31.50;99.90;;;;;;6270744;22;20368;-76
2023/05/30 08:45:19;;;;;;;8.35;3.05;;;31.50;99.90;;;;;;6271003;22;20367;-76
2023/05/30 08:47:45;;;;;;;7.32;2.40;;;31.40;99.90;;;;;;6270334;22;20439;-76
2023/05/30 08:50:12;;;;;;;10.20;2.85;;;31.00;99.90;;;;;;6271256;22;20725;-76
2023/05/30 08:52:40;;;;;;;9.57;3.38;;;30.40;99.90;;;;;;6270484;22;20358;-76
2023/05/30 08:55:11;;;;;;;8.68;3.13;;;30.30;99.90;;;;;;6270586;22;20665;-76
2023/05/30 08:57:53;;;;;;;8.35;2.88;;;30.90;99.90;;;;;;6270604;22;20437;-76
2023/05/30 09:00:21;;;;;;;8.02;2.75;;;32.00;99.90;;;;;;6270720;22;20355;-76
2023/05/30 09:02:51;;;;;;;10.25;7.15;;;32.30;99.90;;;;;;6270218;22;20363;-75
2023/05/30 09:05:17;;;;;;;10.40;6.60;;;32.90;99.90;;;;;;6244166;22;20479;-75
2023/05/30 09:07:44;;;;;;;10.80;6.22;;;32.30;99.90;;;;;;6270852;22;20437;-75
2023/05/30 09:10:11;;;;;;;10.70;6.13;;;32.40;99.90;;;;;;6271039;22;20398;-75
2023/05/30 09:12:37;;;;;;;9.60;6.32;;;33.40;99.90;;;;;;6269998;22;20395;-75
2023/05/30 09:15:04;;;;;;;11.00;6.20;;;33.30;99.90;;;;;;6270428;22;20364;-75
2023/05/30 09:17:29;;;;;;;10.40;7.43;;;32.50;99.90;;;;;;6269959;22;20384;-75
2023/05/30 09:19:56;;;;;;;9.67;5.83;;;32.50;99.90;;;;;;6270068;22;20369;-75
2023/05/30 09:22:22;;;;;;;9.90;6.15;;;32.00;99.90;;;;;;6270285;22;20367;-75
2023/05/30 09:24:58;;;;;;;8.30;5.97;;;31.70;99.90;;;;;;6270215;22;20429;-76
2023/05/30 09:27:25;;;;;;;10.00;7.20;;;30.80;99.90;;;;;;6269972;22;20356;-76
2023/05/30 09:29:51;;;;;;;9.82;6.70;;;30.90;99.90;;;;;;6269715;22;20356;-76
2023/05/30 09:32:17;;;;;;;8.55;6.03;;;31.20;99.90;;;;;;6270133;22;20424;-76
2023/05/30 09:35:03;;;;;;;11.52;7.03;;;31.10;99.90;;;;;;6270780;22;20364;-76
2023/05/30 09:37:36;;;;;;;9.70;6.38;;;32.50;99.90;;;;;;6269723;22;20384;-77
2023/05/30 09:40:09;;;;;;;10.63;6.72;;;32.30;99.90;;;;;;6270115;22;20370;-77
2023/05/30 09:42:45;;;;;;;10.88;5.13;;;33.40;99.90;;;;;;6269926;22;20371;-77
2023/05/30 09:45:13;;;;;;;7.75;3.22;;;33.50;99.90;;;;;;6270422;22;20348;-77
2023/05/30 09:47:41;;;;;;;9.57;6.20;;;32.60;99.90;;;;;;6270310;22;20344;-77
2023/05/30 09:50:08;;;;;;;10.52;6.10;;;32.10;99.90;;;;;;6270086;22;20341;-75
2023/05/30 09:52:35;;;;;;;9.70;2.65;;;32.70;99.90;;;;;;6270161;22;20340;-75
2023/05/30 09:55:05;;;;;;;9.20;2.90;;;32.70;99.90;;;;;;6243187;22;20356;-76
2023/05/30 09:57:35;;;;;;;7.93;2.70;;;31.60;99.90;;;;;;6269917;22;20878;-76
2023/05/30 10:00:15;;;;;;;9.90;2.47;;;30.90;99.90;;;;;;6269867;22;20375;-76
2023/05/30 10:02:43;;;;;;;9.65;2.95;;;31.20;99.90;;;;;;6270386;22;20379;-77
2023/05/30 10:05:19;;;;;;;8.73;2.40;;;32.00;99.90;;;;;;6270179;22;20364;-77
2023/05/30 10:07:47;;;;;;;8.70;2.80;;;31.20;99.90;;;;;;6269459;22;20400;-77
2023/05/30 10:10:14;;;;;;;7.65;2.50;;;30.90;99.90;;;;;;6270338;22;20348;-77
2023/05/30 10:12:51;;;;;;;8.77;2.83;;;31.50;99.90;;;;;;6270430;22;20454;-77
2023/05/30 10:15:18;;;;;;;10.30;3.40;;;31.80;99.90;;;;;;6269508;22;20636;-75
2023/05/30 10:17:55;;;;;;;7.90;2.55;;;32.50;99.90;;;;;;6270464;22;20384;-77
2023/05/30 10:20:24;;;;;;;7.15;2.50;;;32.40;99.90;;;;;;6272688;22;20886;-77
2023/05/30 10:22:52;;;;;;;10.65;6.20;;;31.50;99.90;;;;;;6273580;22;20384;-77
2023/05/30 10:25:18;;;;;;;12.82;6.00;;;30.70;99.90;;;;;;6273653;22;20352;-77
2023/05/30 10:27:56;;;;;;;9.35;5.80;;;30.70;99.90;;;;;;6272689;22;20784;-77
2023/05/30 10:30:23;;;;;;;9.95;5.53;;;30.60;99.90;;;;;;6273058;22;20348;-77
2023/05/30 10:32:57;;;;;;;9.60;6.47;;;30.20;99.90;;;;;;6273240;22;20718;-75
2023/05/30 10:35:23;;;;;;;12.18;5.22;;;29.50;99.90;;;;;;6246415;22;20829;-74
2023/05/30 10:37:50;;;;;;;9.00;5.70;;;29.00;99.90;;;;;;6272849;22;20387;-74
2023/05/30 10:40:19;;;;;;;11.10;6.80;;;28.40;99.90;;;;;;6272802;22;20445;-74
2023/05/30 10:43:06;;;;;;;13.30;6.60;;;28.00;99.90;;;;;;6272971;22;20351;-74
2023/05/30 10:46:02;;;;;;;17.25;6.90;;;27.70;99.90;;;;;;6273417;22;20344;-74
2023/05/30 10:49:06;;;;;;;9.15;6.70;;;27.60;99.90;;;;;;6272507;22;20348;-76
2023/05/30 10:52:01;;;;;;;10.20;6.50;;;27.10;99.90;;;;;;6273178;22;20379;-76
2023/05/30 10:54:32;;;;;;;8.85;6.00;;;27.20;99.90;;;;;;6273269;22;20352;-74
2023/05/30 10:56:58;;;;;;;10.95;6.22;;;27.90;99.90;;;;;;6272202;22;20384;-74
2023/05/30 10:59:24;;;;;;;10.75;6.25;;;28.10;99.90;;;;;;6272837;22;20363;-74
2023/05/30 11:02:04;;;;;;;8.50;5.55;;;28.20;99.90;;;;;;6273240;22;20423;-74
2023/05/30 11:04:36;;;;;;;9.52;6.15;;;27.70;99.90;;;;;;6273276;22;20360;-74
2023/05/30 11:07:06;;;;;;;9.40;6.45;;;27.70;99.90;;;;;;6273082;22;20351;-76
2023/05/30 11:09:32;;;;;;;10.73;5.90;;;27.40;99.90;;;;;;6272773;22;20344;-76
2023/05/30 11:12:00;;;;;;;10.70;6.30;;;27.30;99.90;;;;;;6273045;22;20368;-76
2023/05/30 11:14:32;;;;;;;7.93;6.00;;;26.60;99.90;;;;;;6272972;22;20363;-76
2023/05/30 11:17:02;;;;;;;9.35;6.57;;;27.00;99.90;;;;;;6273210;22;20372;-76
2023/05/30 11:19:40;;;;;;;10.50;6.20;;;26.90;99.90;;;;;;6272803;22;20344;-76
2023/05/30 11:22:15;;;;;;;10.10;6.00;;;27.00;99.90;;;;;;6272982;22;20352;-76
2023/05/30 11:24:41;;;;;;;10.25;6.10;;;26.90;99.90;;;;;;6273772;22;20352;-76
2023/05/30 11:27:16;;;;;;;9.20;5.60;;;27.20;99.90;;;;;;6272763;22;20364;-76
2023/05/30 11:29:49;;;;;;;8.50;6.35;;;26.50;99.90;;;;;;6273464;22;20357;-76
2023/05/30 11:32:20;;;;;;;9.57;6.32;;;26.40;99.90;;;;;;6271163;22;20441;-76
2023/05/30 11:34:46;;;;;;;9.00;6.13;;;26.70;99.90;;;;;;6271757;22;20348;-76
2023/05/30 11:37:11;;;;;;;9.85;6.25;;;26.90;99.90;;;;;;6271678;22;20702;-76
2023/05/30 11:39:37;;;;;;;10.73;6.10;;;26.80;99.90;;;;;;6271390;22;20368;-76
2023/05/30 11:42:05;;;;;;;8.60;5.90;;;27.00;99.90;;;;;;6271273;22;20367;-76
2023/05/30 11:44:31;;;;;;;12.52;6.20;;;26.80;99.90;;;;;;6271377;22;20668;-76
2023/05/30 11:47:09;;;;;;;11.35;6.22;;;27.10;99.90;;;;;;6271288;22;20387;-77
2023/05/30 11:49:35;;;;;;;10.77;6.35;;;26.90;99.90;;;;;;6271427;22;20364;-77
2023/05/30 11:52:01;;;;;;;9.48;6.05;;;26.70;99.90;;;;;;6270597;22;20357;-77
2023/05/30 11:54:27;;;;;;;10.27;6.13;;;27.00;99.90;;;;;;6271086;22;20344;-77
2023/05/30 11:56:55;;;;;;;12.10;6.38;;;27.30;99.90;;;;;;6243931;22;20388;-77
2023/05/30 11:59:23;;;;;;;10.20;6.40;;;27.50;99.90;;;;;;6271521;22;20356;-74
2023/05/30 12:02:01;;;;;;;9.18;6.20;;;27.70;99.90;;;;;;6271052;22;20543;-74
2023/05/30 12:04:31;;;;;;;9.15;6.20;;;27.30;99.90;;;;;;6271640;22;20348;-75
2023/05/30 12:06:59;;;;;;;9.55;6.40;;;27.30;99.90;;;;;;6271208;22;20360;-76
2023/05/30 12:09:25;;;;;;;9.33;6.47;;;27.30;99.90;;;;;;6270308;22;20368;-77
2023/05/30 12:11:52;;;;;;;10.73;5.90;;;27.30;99.90;;;;;;6270687;22;20434;-77
2023/05/30 12:14:18;;;;;;;9.10;6.63;;;26.80;99.90;;;;;;6270774;22;20355;-77
2023/05/30 12:16:43;;;;;;;9.90;6.37;;;26.40;99.90;;;;;;6272333;22;20380;-76
2023/05/30 12:19:10;;;;;;;11.27;6.50;;;26.30;99.90;;;;;;6271318;22;20364;-77
2023/05/30 12:21:36;;;;;;;10.40;6.50;;;26.30;99.90;;;;;;6270845;22;20393;-76
2023/05/30 12:24:13;;;;;;;9.90;6.53;;;26.50;99.90;;;;;;6271325;22;20367;-77
2023/05/30 12:26:47;;;;;;;10.00;5.65;;;26.50;99.90;;;;;;6271963;22;20348;-77
2023/05/30 12:29:12;;;;;;;12.80;6.40;;;26.50;99.90;;;;;;6272028;22;20458;-77
2023/05/30 12:31:38;;;;;;;9.73;5.90;;;26.50;99.90;;;;;;6271448;22;20793;-77
2023/05/30 12:34:03;;;;;;;9.73;5.97;;;26.30;99.90;;;;;;6271259;22;21246;-77
2023/05/30 12:36:29;;;;;;;12.27;5.77;;;26.50;99.90;;;;;;6271374;22;20371;-77
2023/05/30 12:38:56;;;;;;;9.90;6.30;;;26.80;99.90;;;;;;6270868;22;20467;-77
2023/05/30 12:41:31;;;;;;;10.63;6.50;;;26.90;99.90;;;;;;6270638;22;20358;-77
2023/05/30 12:43:57;;;;;;;12.13;5.90;;;27.00;99.90;;;;;;6270713;22;20431;-77
2023/05/30 12:46:26;;;;;;;9.65;6.05;;;27.20;99.90;;;;;;6270979;22;20352;-77
2023/05/30 12:48:52;;;;;;;8.57;5.30;;;27.30;99.90;;;;;;6269189;22;20858;-74